createdAt,value
2023-04-18T00:02:09.423Z,100.00
2023-04-18T00:04:39.412Z,100.00
2023-04-18T00:07:09.057Z,100.00
2023-04-18T00:09:40.906Z,100.00
2023-04-18T00:12:11.513Z,100.00
2023-04-18T00:14:41.467Z,100.00
2023-04-18T00:17:11.263Z,100.00
2023-04-18T00:19:43.528Z,100.00
2023-04-18T00:22:13.386Z,100.00
2023-04-18T00:24:44.829Z,100.00
2023-04-18T00:27:14.387Z,100.00
2023-04-18T00:29:44.279Z,100.00
2023-04-18T00:32:13.960Z,100.00
2023-04-18T00:34:43.820Z,100.00
2023-04-18T00:37:14.780Z,100.00
2023-04-18T00:39:46.548Z,100.00
2023-04-18T00:42:16.149Z,100.00
2023-04-18T00:44:47.112Z,100.00
2023-04-18T00:47:17.058Z,100.00
2023-04-18T00:49:47.419Z,100.00
2023-04-18T00:52:17.567Z,100.00
2023-04-18T00:54:49.062Z,100.00
2023-04-18T00:57:19.015Z,100.00
2023-04-18T00:59:48.911Z,100.00
2023-04-18T01:02:19.513Z,100.00
2023-04-18T01:04:49.603Z,100.00
2023-04-18T01:07:20.246Z,100.00
2023-04-18T01:09:51.563Z,100.00
2023-04-18T01:12:23.639Z,100.00
2023-04-18T01:14:53.502Z,100.00
2023-04-18T01:17:23.675Z,100.00
2023-04-18T01:19:54.576Z,100.00
2023-04-18T01:22:24.229Z,100.00
2023-04-18T01:24:56.151Z,100.00
2023-04-18T01:27:25.874Z,100.00
2023-04-18T01:29:56.032Z,100.00
2023-04-18T01:32:25.705Z,100.00
2023-04-18T01:34:55.591Z,100.00
2023-04-18T01:37:25.103Z,100.00
2023-04-18T01:39:58.510Z,100.00
2023-04-18T01:42:28.038Z,100.00
2023-04-18T01:44:58.031Z,100.00
2023-04-18T01:47:27.708Z,100.00
2023-04-18T01:49:57.602Z,100.00
2023-04-18T01:52:28.110Z,100.00
2023-04-18T01:54:59.718Z,100.00
2023-04-18T01:57:29.843Z,100.00
2023-04-18T01:59:59.765Z,100.00
2023-04-18T02:02:29.704Z,100.00
2023-04-18T02:05:00.473Z,100.00
2023-04-18T02:07:30.353Z,100.00
2023-04-18T02:10:01.801Z,100.00
2023-04-18T02:12:31.353Z,100.00
2023-04-18T02:15:01.321Z,100.00
2023-04-18T02:17:31.169Z,100.00
2023-04-18T02:20:01.273Z,100.00
2023-04-18T02:22:30.986Z,100.00
2023-04-18T02:25:04.552Z,100.00
2023-04-18T02:27:34.170Z,100.00
2023-04-18T02:30:04.839Z,100.00
2023-04-18T02:32:36.993Z,100.00
2023-04-18T02:35:07.247Z,100.00
2023-04-18T02:37:36.844Z,100.00
2023-04-18T02:40:09.870Z,100.00
2023-04-18T02:42:39.541Z,100.00
2023-04-18T02:45:10.046Z,100.00
2023-04-18T02:47:47.369Z,100.00
2023-04-18T02:50:21.814Z,100.00
2023-04-18T02:52:51.742Z,100.00
2023-04-18T02:55:27.162Z,100.00
2023-04-18T02:58:00.660Z,100.00
2023-04-18T03:00:54.793Z,100.00
2023-04-18T03:03:42.658Z,100.00
2023-04-18T03:06:35.577Z,100.00
2023-04-18T03:09:05.430Z,100.00
2023-04-18T03:11:39.911Z,100.00
2023-04-18T03:14:09.669Z,100.00
2023-04-18T03:16:47.453Z,100.00
2023-04-18T03:19:21.069Z,100.00
2023-04-18T03:21:52.272Z,100.00
2023-04-18T03:24:21.923Z,100.00
2023-04-18T03:26:56.213Z,100.00
2023-04-18T03:29:28.246Z,100.00
2023-04-18T03:31:58.933Z,100.00
2023-04-18T03:34:28.650Z,100.00
2023-04-18T03:36:58.714Z,100.00
2023-04-18T03:39:30.529Z,100.00
2023-04-18T03:42:02.954Z,100.00
2023-04-18T03:44:32.599Z,100.00
2023-04-18T03:47:02.512Z,100.00
2023-04-18T03:49:33.405Z,100.00
2023-04-18T03:52:03.565Z,100.00
2023-04-18T03:54:33.235Z,100.00
2023-04-18T03:57:04.770Z,100.00
2023-04-18T03:59:37.097Z,100.00
2023-04-18T04:02:07.390Z,100.00
2023-04-18T04:04:37.348Z,100.00
2023-04-18T04:07:07.522Z,100.00
2023-04-18T04:09:38.308Z,100.00
2023-04-18T04:12:10.936Z,100.00
2023-04-18T04:14:40.536Z,100.00
2023-04-18T04:17:10.742Z,100.00
2023-04-18T04:19:41.335Z,100.00
2023-04-18T04:22:15.250Z,100.00
2023-04-18T04:24:47.004Z,100.00
2023-04-18T04:27:21.891Z,100.00
2023-04-18T04:29:52.923Z,100.00
2023-04-18T04:32:23.130Z,100.00
2023-04-18T04:34:53.904Z,100.00
2023-04-18T04:37:24.315Z,100.00
2023-04-18T04:40:15.945Z,100.00
2023-04-18T04:42:58.850Z,100.00
2023-04-18T04:45:34.971Z,100.00
2023-04-18T04:48:05.469Z,100.00
2023-04-18T04:50:35.372Z,100.00
2023-04-18T04:53:05.380Z,100.00
2023-04-18T04:55:35.280Z,100.00
2023-04-18T04:58:08.779Z,100.00
2023-04-18T05:00:58.030Z,100.00
2023-04-18T05:03:28.338Z,100.00
2023-04-18T05:05:58.091Z,100.00
2023-04-18T05:08:28.176Z,100.00
2023-04-18T05:10:57.810Z,100.00
2023-04-18T05:13:29.091Z,100.00
2023-04-18T05:15:59.640Z,100.00
2023-04-18T05:18:29.681Z,100.00
2023-04-18T05:20:59.446Z,100.00
2023-04-18T05:23:29.380Z,100.00
2023-04-18T05:25:59.094Z,100.00
2023-04-18T05:28:30.603Z,100.00
2023-04-18T05:31:05.414Z,100.00
2023-04-18T05:33:41.801Z,100.00
2023-04-18T05:36:14.387Z,100.00
2023-04-18T05:38:49.272Z,100.00
2023-04-18T05:41:20.428Z,100.00
2023-04-18T05:44:04.269Z,100.00
2023-04-18T05:46:34.984Z,100.00
2023-04-18T05:49:05.031Z,100.00
2023-04-18T05:51:34.688Z,100.00
2023-04-18T05:54:04.732Z,100.00
2023-04-18T05:56:34.284Z,100.00
2023-04-18T05:59:05.707Z,100.00
2023-04-18T06:01:35.334Z,100.00
2023-04-18T06:04:05.446Z,100.00
2023-04-18T06:06:35.162Z,100.00
2023-04-18T06:09:05.409Z,100.00
2023-04-18T06:11:36.258Z,100.00
2023-04-18T06:14:08.154Z,100.00
2023-04-18T06:16:38.135Z,100.00
2023-04-18T06:19:08.197Z,100.00
2023-04-18T06:21:37.704Z,100.00
2023-04-18T06:24:08.065Z,100.00
2023-04-18T06:26:37.658Z,100.00
2023-04-18T06:29:08.962Z,100.00
2023-04-18T06:31:38.661Z,100.00
2023-04-18T06:34:08.545Z,100.00
2023-04-18T06:36:38.113Z,100.00
2023-04-18T06:39:08.029Z,100.00
2023-04-18T06:41:37.663Z,100.00
2023-04-18T06:44:08.986Z,100.00
2023-04-18T06:46:38.621Z,100.00
2023-04-18T06:49:08.530Z,100.00
2023-04-18T06:51:38.096Z,100.00
2023-04-18T06:54:07.969Z,100.00
2023-04-18T06:56:37.556Z,100.00
2023-04-18T06:59:09.772Z,100.00
2023-04-18T07:01:41.561Z,100.00
2023-04-18T07:04:11.905Z,99.82
2023-04-18T07:06:41.789Z,99.06
2023-04-18T07:09:11.719Z,97.27
2023-04-18T07:11:41.418Z,96.95
2023-04-18T07:14:13.624Z,99.93
2023-04-18T07:16:43.526Z,100.00
2023-04-18T07:19:13.352Z,100.00
2023-04-18T07:21:44.103Z,100.00
2023-04-18T07:24:14.394Z,100.00
2023-04-18T07:26:44.323Z,100.00
2023-04-18T07:29:15.951Z,100.00
2023-04-18T07:31:45.498Z,99.71
2023-04-18T07:34:16.135Z,98.02
2023-04-18T07:36:45.747Z,97.31
2023-04-18T07:39:15.816Z,95.31
2023-04-18T07:41:45.438Z,94.87
2023-04-18T07:44:16.691Z,95.61
2023-04-18T07:46:46.564Z,93.79
2023-04-18T07:49:16.610Z,94.11
2023-04-18T07:51:46.412Z,92.96
2023-04-18T07:54:16.265Z,92.50
2023-04-18T07:56:46.122Z,92.94
2023-04-18T07:59:17.796Z,92.30
2023-04-18T08:01:47.500Z,92.52
2023-04-18T08:04:17.620Z,91.25
2023-04-18T08:06:47.402Z,92.44
2023-04-18T08:09:17.393Z,92.25
2023-04-18T08:11:47.016Z,93.72
2023-04-18T08:14:18.577Z,94.38
2023-04-18T08:16:48.474Z,94.05
2023-04-18T08:19:18.417Z,91.97
2023-04-18T08:21:48.226Z,92.12
2023-04-18T08:24:18.215Z,93.20
2023-04-18T08:26:47.730Z,91.31
2023-04-18T08:29:19.235Z,92.76
2023-04-18T08:31:48.929Z,90.42
2023-04-18T08:34:19.017Z,90.67
2023-04-18T08:36:48.853Z,91.32
2023-04-18T08:39:19.154Z,92.49
2023-04-18T08:41:53.242Z,92.03
2023-04-18T08:44:24.854Z,91.11
2023-04-18T08:46:54.884Z,90.29
2023-04-18T08:49:26.200Z,89.78
2023-04-18T08:51:57.761Z,88.18
2023-04-18T08:54:30.649Z,89.53
2023-04-18T08:57:07.659Z,91.76
2023-04-18T08:59:39.059Z,93.42
2023-04-18T09:02:10.431Z,94.30
2023-04-18T09:04:41.652Z,95.14
2023-04-18T09:07:12.061Z,94.55
2023-04-18T09:09:46.099Z,95.41
2023-04-18T09:12:18.482Z,93.71
2023-04-18T09:14:51.780Z,91.63
2023-04-18T09:17:33.172Z,90.47
2023-04-18T09:20:05.284Z,92.11
2023-04-18T09:22:46.594Z,91.93
2023-04-18T09:25:36.333Z,93.09
2023-04-18T09:28:06.709Z,93.73
2023-04-18T09:30:40.221Z,93.55
2023-04-18T09:33:10.852Z,92.76
2023-04-18T09:35:40.844Z,92.51
2023-04-18T09:38:10.357Z,89.03
2023-04-18T09:40:40.326Z,89.38
2023-04-18T09:43:19.649Z,86.36
2023-04-18T09:45:51.861Z,86.17
2023-04-18T09:48:21.736Z,89.12
2023-04-18T09:50:51.968Z,87.55
2023-04-18T09:53:21.900Z,88.05
2023-04-18T09:55:53.982Z,88.93
2023-04-18T09:58:27.184Z,87.44
2023-04-18T10:00:59.261Z,87.22
2023-04-18T10:03:33.039Z,87.70
2023-04-18T10:06:03.093Z,88.83
2023-04-18T10:08:33.606Z,87.75
2023-04-18T10:11:03.602Z,88.17
2023-04-18T10:13:34.262Z,88.59
2023-04-18T10:16:07.293Z,88.46
2023-04-18T10:18:37.670Z,88.65
2023-04-18T10:21:07.844Z,88.04
2023-04-18T10:23:38.505Z,88.18
2023-04-18T10:26:08.808Z,85.91
2023-04-18T10:28:51.417Z,87.16
2023-04-18T10:31:23.329Z,85.86
2023-04-18T10:36:28.767Z,89.31
2023-04-18T10:39:03.318Z,90.79
2023-04-18T10:41:34.514Z,89.89
2023-04-18T10:44:22.200Z,90.41
2023-04-18T10:47:12.657Z,90.53
2023-04-18T10:49:54.653Z,91.70
2023-04-18T10:52:25.077Z,88.75
2023-04-18T10:54:58.484Z,89.74
2023-04-18T10:57:38.921Z,89.31
2023-04-18T11:00:12.346Z,89.15
2023-04-18T11:02:43.066Z,91.33
2023-04-18T11:05:14.257Z,92.57
2023-04-18T11:07:46.362Z,91.87
2023-04-18T11:10:18.162Z,91.08
2023-04-18T11:12:48.237Z,90.03
2023-04-18T11:15:21.681Z,90.98
2023-04-18T11:17:59.446Z,91.44
2023-04-18T11:20:30.814Z,90.22
2023-04-18T11:23:01.935Z,91.16
2023-04-18T11:25:34.685Z,91.08
2023-04-18T11:28:05.570Z,91.37
2023-04-18T11:30:37.965Z,92.00
2023-04-18T11:33:09.094Z,92.08
2023-04-18T11:35:40.969Z,91.05
2023-04-18T11:38:11.617Z,90.05
2023-04-18T11:40:41.442Z,89.22
2023-04-18T11:43:11.552Z,88.88
2023-04-18T11:45:52.351Z,90.67
2023-04-18T11:48:22.797Z,91.05
2023-04-18T11:50:53.997Z,91.08
2023-04-18T11:53:33.820Z,90.32
2023-04-18T11:56:04.166Z,89.74
2023-04-18T11:58:34.357Z,91.78
2023-04-18T12:01:16.902Z,91.60
2023-04-18T12:04:00.946Z,91.99
2023-04-18T12:06:45.451Z,92.47
2023-04-18T12:09:16.913Z,92.82
2023-04-18T12:11:58.359Z,90.44
2023-04-18T12:14:29.017Z,91.17
2023-04-18T12:16:58.786Z,90.44
2023-04-18T12:19:29.126Z,90.62
2023-04-18T12:22:00.980Z,89.91
2023-04-18T12:24:32.550Z,90.06
2023-04-18T12:27:02.380Z,89.31
2023-04-18T12:29:32.235Z,88.96
2023-04-18T12:32:01.943Z,89.63
2023-04-18T12:34:31.926Z,89.59
2023-04-18T12:37:01.608Z,90.68
2023-04-18T12:39:33.203Z,87.94
2023-04-18T12:42:02.901Z,82.87
2023-04-18T12:44:32.963Z,82.90
2023-04-18T12:47:02.674Z,83.98
2023-04-18T12:49:32.622Z,85.13
2023-04-18T12:52:02.226Z,87.37
2023-04-18T12:54:33.716Z,88.67
2023-04-18T12:57:04.029Z,89.71
2023-04-18T12:59:34.024Z,89.95
2023-04-18T13:02:03.825Z,88.22
2023-04-18T13:04:34.156Z,91.11
2023-04-18T13:07:04.338Z,89.10
2023-04-18T13:09:35.726Z,87.40
2023-04-18T13:12:05.580Z,84.80
2023-04-18T13:14:35.520Z,84.96
2023-04-18T13:17:05.158Z,82.99
2023-04-18T13:19:35.302Z,84.64
2023-04-18T13:22:05.272Z,85.10
2023-04-18T13:24:37.305Z,85.79
2023-04-18T13:27:10.822Z,86.72
2023-04-18T13:29:41.497Z,85.92
2023-04-18T13:32:11.332Z,87.06
2023-04-18T13:34:44.950Z,86.24
2023-04-18T13:37:14.770Z,87.92
2023-04-18T13:39:46.584Z,89.22
2023-04-18T13:42:16.353Z,90.27
2023-04-18T13:44:46.671Z,91.00
2023-04-18T13:47:16.337Z,92.96
2023-04-18T13:49:46.707Z,93.44
2023-04-18T13:52:16.437Z,94.29
2023-04-18T13:54:49.255Z,96.05
2023-04-18T13:57:18.776Z,95.51
2023-04-18T13:59:48.744Z,95.83
2023-04-18T14:02:18.848Z,98.02
2023-04-18T14:04:49.636Z,100.00
2023-04-18T14:07:19.938Z,100.00
2023-04-18T14:09:53.751Z,100.00
2023-04-18T14:12:23.413Z,100.00
2023-04-18T14:14:53.401Z,100.00
2023-04-18T14:17:23.042Z,100.00
2023-04-18T14:19:53.300Z,100.00
2023-04-18T14:22:22.873Z,99.87
2023-04-18T14:24:54.801Z,100.00
2023-04-18T14:27:26.307Z,100.00
2023-04-18T14:29:56.256Z,100.00
2023-04-18T14:32:25.966Z,99.99
2023-04-18T14:34:57.218Z,100.00
2023-04-18T14:37:26.847Z,100.00
2023-04-18T14:40:01.616Z,100.00
2023-04-18T14:42:33.774Z,100.00
2023-04-18T14:45:06.325Z,100.00
2023-04-18T14:47:37.099Z,100.00
2023-04-18T14:50:07.875Z,100.00
2023-04-18T14:52:37.429Z,100.00
2023-04-18T14:55:09.952Z,100.00
2023-04-18T14:57:40.319Z,100.00
2023-04-18T15:00:12.780Z,99.89
2023-04-18T15:02:43.073Z,99.89
2023-04-18T15:05:13.895Z,100.00
2023-04-18T15:07:44.873Z,100.00
2023-04-18T15:10:16.414Z,100.00
2023-04-18T15:12:47.655Z,100.00
2023-04-18T15:15:19.137Z,99.88
2023-04-18T15:17:49.848Z,99.79
2023-04-18T15:20:21.264Z,99.86
2023-04-18T15:22:52.157Z,100.00
2023-04-18T15:25:23.619Z,98.93
2023-04-18T15:27:53.477Z,98.77
2023-04-18T15:30:23.516Z,98.33
2023-04-18T15:32:54.249Z,96.86
2023-04-18T15:35:24.457Z,95.54
2023-04-18T15:37:54.360Z,93.79
2023-04-18T15:40:25.886Z,92.22
2023-04-18T15:42:56.390Z,90.64
2023-04-18T15:45:26.233Z,89.69
2023-04-18T15:47:55.996Z,88.65
2023-04-18T15:50:26.341Z,87.93
2023-04-18T15:52:56.585Z,86.56
2023-04-18T15:55:28.252Z,86.60
2023-04-18T15:57:57.757Z,85.33
2023-04-18T16:00:27.741Z,82.62
2023-04-18T16:02:57.574Z,79.46
2023-04-18T16:05:27.546Z,75.54
2023-04-18T16:07:58.393Z,74.83
2023-04-18T16:10:29.813Z,73.23
2023-04-18T16:13:00.137Z,72.87
2023-04-18T16:15:32.021Z,71.47
2023-04-18T16:18:01.760Z,72.46
2023-04-18T16:20:33.595Z,71.48
2023-04-18T16:23:03.181Z,71.81
2023-04-18T16:25:34.488Z,71.60
2023-04-18T16:28:04.284Z,73.29
2023-04-18T16:30:34.286Z,74.66
2023-04-18T16:33:04.103Z,74.65
2023-04-18T16:35:34.080Z,75.76
2023-04-18T16:38:03.822Z,76.54
2023-04-18T16:40:35.309Z,78.02
2023-04-18T16:43:05.168Z,81.76
2023-04-18T16:45:35.168Z,81.33
2023-04-18T16:48:05.309Z,82.97
2023-04-18T16:50:35.359Z,82.64
2023-04-18T16:53:04.940Z,82.16
2023-04-18T16:55:36.734Z,84.35
2023-04-18T16:58:06.374Z,83.41
2023-04-18T17:00:38.487Z,82.54
2023-04-18T17:03:10.189Z,82.76
2023-04-18T17:05:40.382Z,84.94
2023-04-18T17:08:10.010Z,85.06
2023-04-18T17:10:41.327Z,85.07
2023-04-18T17:13:10.980Z,84.83
2023-04-18T17:15:41.072Z,84.35
2023-04-18T17:18:10.706Z,84.94
2023-04-18T17:20:40.861Z,84.02
2023-04-18T17:23:10.491Z,85.72
2023-04-18T17:25:41.818Z,84.40
2023-04-18T17:28:12.011Z,84.40
2023-04-18T17:30:42.920Z,85.14
2023-04-18T17:33:12.648Z,87.20
2023-04-18T17:35:43.029Z,88.67
2023-04-18T17:38:15.272Z,88.67
2023-04-18T17:40:49.373Z,90.30
2023-04-18T17:43:20.071Z,90.80
2023-04-18T17:45:52.642Z,91.36
2023-04-18T17:48:25.064Z,92.00
2023-04-18T17:50:56.264Z,93.08
2023-04-18T17:53:29.688Z,93.77
2023-04-18T17:56:05.671Z,94.91
2023-04-18T17:58:37.755Z,95.31
2023-04-18T18:01:17.136Z,94.89
2023-04-18T18:03:51.138Z,96.00
2023-04-18T18:06:24.583Z,95.29
2023-04-18T18:08:57.906Z,93.29
2023-04-18T18:11:30.740Z,93.33
2023-04-18T18:14:02.194Z,92.49
2023-04-18T18:16:35.650Z,92.87
2023-04-18T18:19:08.898Z,91.92
2023-04-18T18:21:42.149Z,91.68
2023-04-18T18:24:14.649Z,91.19
2023-04-18T18:26:51.512Z,91.56
2023-04-18T18:29:24.543Z,90.83
2023-04-18T18:31:55.855Z,91.38
2023-04-18T18:34:28.713Z,88.84
2023-04-18T18:37:00.257Z,88.86
2023-04-18T18:39:31.116Z,88.41
2023-04-18T18:42:05.495Z,87.66
2023-04-18T18:44:37.259Z,87.33
2023-04-18T18:47:10.805Z,88.73
2023-04-18T18:49:41.575Z,87.87
2023-04-18T18:52:12.839Z,88.58
2023-04-18T18:54:44.437Z,87.63
2023-04-18T18:57:17.601Z,86.71
2023-04-18T18:59:50.976Z,87.50
2023-04-18T19:02:23.486Z,87.27
2023-04-18T19:04:54.415Z,86.42
2023-04-18T19:07:24.747Z,86.72
2023-04-18T19:09:56.278Z,86.55
2023-04-18T19:12:30.164Z,87.41
2023-04-18T19:14:59.799Z,85.92
2023-04-18T19:17:29.860Z,87.79
2023-04-18T19:20:01.920Z,87.49
2023-04-18T19:22:32.736Z,86.21
2023-04-18T19:25:03.277Z,86.20
2023-04-18T19:27:35.719Z,87.25
2023-04-18T19:30:07.280Z,86.64
2023-04-18T19:32:39.133Z,86.79
2023-04-18T19:35:13.515Z,86.24
2023-04-18T19:37:44.893Z,86.44
2023-04-18T19:40:16.522Z,85.07
2023-04-18T19:42:48.195Z,86.94
2023-04-18T19:45:18.047Z,87.59
2023-04-18T19:47:50.184Z,86.74
2023-04-18T19:50:20.874Z,86.43
2023-04-18T19:52:51.895Z,87.81
2023-04-18T19:55:21.851Z,87.37
2023-04-18T19:57:57.344Z,88.03
2023-04-18T20:00:29.432Z,88.47
2023-04-18T20:03:00.079Z,87.82
2023-04-18T20:05:30.719Z,88.25
2023-04-18T20:08:02.307Z,88.33
2023-04-18T20:10:33.556Z,89.68
2023-04-18T20:13:05.681Z,88.78
2023-04-18T20:15:37.550Z,90.40
2023-04-18T20:18:09.316Z,89.71
2023-04-18T20:20:39.260Z,90.25
2023-04-18T20:23:09.485Z,91.78
2023-04-18T20:25:39.321Z,91.96
2023-04-18T20:28:10.961Z,91.32
2023-04-18T20:30:40.949Z,92.22
2023-04-18T20:33:11.239Z,92.96
2023-04-18T20:35:41.934Z,92.77
2023-04-18T20:38:12.547Z,91.95
2023-04-18T20:40:42.971Z,92.62
2023-04-18T20:43:17.657Z,93.01
2023-04-18T20:45:47.455Z,92.92
2023-04-18T20:48:17.248Z,92.99
2023-04-18T20:50:51.701Z,92.72
2023-04-18T20:53:22.279Z,92.82
2023-04-18T20:55:52.269Z,93.00
2023-04-18T20:58:23.929Z,91.88
2023-04-18T21:00:53.856Z,91.92
2023-04-18T21:03:23.988Z,93.09
2023-04-18T21:05:54.146Z,93.26
2023-04-18T21:08:24.035Z,92.21
2023-04-18T21:10:53.820Z,92.52
2023-04-18T21:13:25.074Z,92.37
2023-04-18T21:15:57.269Z,92.49
2023-04-18T21:18:27.221Z,92.13
2023-04-18T21:20:56.772Z,92.67
2023-04-18T21:23:26.743Z,93.07
2023-04-18T21:25:56.301Z,93.18
2023-04-18T21:28:27.587Z,93.21
2023-04-18T21:30:57.184Z,93.56
2023-04-18T21:33:26.966Z,93.96
2023-04-18T21:35:56.550Z,94.55
2023-04-18T21:38:26.680Z,94.09
2023-04-18T21:40:56.227Z,95.35
2023-04-18T21:43:27.586Z,95.88
2023-04-18T21:45:57.124Z,96.22
2023-04-18T21:48:26.956Z,96.85
2023-04-18T21:50:56.469Z,96.59
2023-04-18T21:53:26.432Z,96.49
2023-04-18T21:55:55.949Z,96.81
2023-04-18T21:58:25.823Z,97.31
2023-04-18T22:00:56.967Z,97.67
2023-04-18T22:03:30.363Z,98.34
2023-04-18T22:06:00.326Z,98.52
2023-04-18T22:08:31.655Z,99.50
2023-04-18T22:11:01.206Z,99.92
2023-04-18T22:13:33.271Z,100.00
2023-04-18T22:16:05.031Z,100.00
2023-04-18T22:18:35.279Z,100.00
2023-04-18T22:21:06.350Z,100.00
2023-04-18T22:23:36.643Z,100.00
2023-04-18T22:26:06.144Z,100.00
2023-04-18T22:28:36.052Z,100.00
2023-04-18T22:31:08.210Z,100.00
2023-04-18T22:33:38.133Z,100.00
2023-04-18T22:36:07.832Z,100.00
2023-04-18T22:38:37.624Z,100.00
2023-04-18T22:41:08.175Z,100.00
2023-04-18T22:43:38.095Z,100.00
2023-04-18T22:46:09.178Z,100.00
2023-04-18T22:48:39.241Z,100.00
2023-04-18T22:51:08.686Z,100.00
2023-04-18T22:53:38.627Z,100.00
2023-04-18T22:56:08.450Z,100.00
2023-04-18T22:58:38.222Z,100.00
2023-04-18T23:01:09.292Z,100.00
2023-04-18T23:03:39.292Z,100.00
2023-04-18T23:06:09.408Z,100.00
2023-04-18T23:08:39.261Z,100.00
2023-04-18T23:11:10.927Z,100.00
2023-04-18T23:13:40.830Z,100.00
2023-04-18T23:16:11.965Z,100.00
2023-04-18T23:18:41.821Z,100.00
2023-04-18T23:21:11.440Z,100.00
2023-04-18T23:23:41.401Z,100.00
2023-04-18T23:26:14.027Z,100.00
2023-04-18T23:28:44.105Z,100.00
2023-04-18T23:31:15.130Z,100.00
2023-04-18T23:33:45.795Z,100.00
2023-04-18T23:36:15.208Z,100.00
2023-04-18T23:38:45.225Z,100.00
2023-04-18T23:41:14.727Z,100.00
2023-04-18T23:43:44.823Z,100.00
2023-04-18T23:46:16.873Z,100.00
2023-04-18T23:48:46.897Z,100.00
2023-04-18T23:51:16.606Z,100.00
2023-04-18T23:53:46.678Z,100.00
2023-04-18T23:56:16.193Z,100.00
2023-04-18T23:58:45.959Z,99.01
